sensor_id;sensor_type;location;lat;lon;timestamp;P1;durP1;ratioP1;P2;durP2;ratioP2
19903;SDS011;10114;50.970;4.962;2023-05-20T00:00:10;7.22;;;2.90;;
19903;SDS011;10114;50.970;4.962;2023-05-20T00:02:36;8.25;;;2.30;;
19903;SDS011;10114;50.970;4.962;2023-05-20T00:05:02;7.05;;;2.33;;
19903;SDS011;10114;50.970;4.962;2023-05-20T00:07:28;5.88;;;2.50;;
19903;SDS011;10114;50.970;4.962;2023-05-20T00:09:54;6.97;;;2.63;;
19903;SDS011;10114;50.970;4.962;2023-05-20T00:12:20;7.03;;;2.50;;
19903;SDS011;10114;50.970;4.962;2023-05-20T00:14:46;9.02;;;2.35;;
19903;SDS011;10114;50.970;4.962;2023-05-20T00:17:12;7.45;;;2.50;;
19903;SDS011;10114;50.970;4.962;2023-05-20T00:19:38;7.22;;;2.45;;
19903;SDS011;10114;50.970;4.962;2023-05-20T00:22:05;6.55;;;2.50;;
19903;SDS011;10114;50.970;4.962;2023-05-20T00:24:31;8.85;;;2.38;;
19903;SDS011;10114;50.970;4.962;2023-05-20T00:26:57;6.80;;;2.10;;
19903;SDS011;10114;50.970;4.962;2023-05-20T00:29:23;8.45;;;2.47;;
19903;SDS011;10114;50.970;4.962;2023-05-20T00:31:49;7.10;;;2.92;;
19903;SDS011;10114;50.970;4.962;2023-05-20T00:34:15;8.10;;;2.70;;
19903;SDS011;10114;50.970;4.962;2023-05-20T00:36:41;7.93;;;2.53;;
19903;SDS011;10114;50.970;4.962;2023-05-20T00:39:07;10.23;;;2.53;;
19903;SDS011;10114;50.970;4.962;2023-05-20T00:41:33;8.85;;;2.38;;
19903;SDS011;10114;50.970;4.962;2023-05-20T00:43:59;6.88;;;2.60;;
19903;SDS011;10114;50.970;4.962;2023-05-20T00:46:25;9.18;;;3.20;;
19903;SDS011;10114;50.970;4.962;2023-05-20T00:48:53;7.55;;;1.98;;
19903;SDS011;10114;50.970;4.962;2023-05-20T00:51:19;8.68;;;2.30;;
19903;SDS011;10114;50.970;4.962;2023-05-20T00:53:45;8.98;;;3.00;;
19903;SDS011;10114;50.970;4.962;2023-05-20T00:56:11;7.85;;;2.38;;
19903;SDS011;10114;50.970;4.962;2023-05-20T00:58:37;7.95;;;1.90;;
19903;SDS011;10114;50.970;4.962;2023-05-20T01:01:04;5.43;;;2.28;;
19903;SDS011;10114;50.970;4.962;2023-05-20T01:03:30;7.80;;;3.28;;
19903;SDS011;10114;50.970;4.962;2023-05-20T01:05:56;6.78;;;2.33;;
19903;SDS011;10114;50.970;4.962;2023-05-20T01:08:23;5.38;;;2.00;;
19903;SDS011;10114;50.970;4.962;2023-05-20T01:13:26;6.50;;;2.20;;
19903;SDS011;10114;50.970;4.962;2023-05-20T01:15:55;6.65;;;2.35;;
19903;SDS011;10114;50.970;4.962;2023-05-20T01:18:23;9.25;;;2.25;;
19903;SDS011;10114;50.970;4.962;2023-05-20T01:20:50;8.10;;;2.40;;
19903;SDS011;10114;50.970;4.962;2023-05-20T01:23:18;6.30;;;1.98;;
19903;SDS011;10114;50.970;4.962;2023-05-20T01:25:45;4.78;;;2.05;;
19903;SDS011;10114;50.970;4.962;2023-05-20T01:28:11;6.95;;;2.10;;
19903;SDS011;10114;50.970;4.962;2023-05-20T01:30:42;7.20;;;2.17;;
19903;SDS011;10114;50.970;4.962;2023-05-20T01:33:10;4.82;;;1.98;;
19903;SDS011;10114;50.970;4.962;2023-05-20T01:35:37;5.30;;;1.98;;
19903;SDS011;10114;50.970;4.962;2023-05-20T01:38:04;5.07;;;1.98;;
19903;SDS011;10114;50.970;4.962;2023-05-20T01:40:30;5.05;;;2.20;;
19903;SDS011;10114;50.970;4.962;2023-05-20T01:42:57;5.53;;;2.05;;
19903;SDS011;10114;50.970;4.962;2023-05-20T01:45:24;10.75;;;2.25;;
19903;SDS011;10114;50.970;4.962;2023-05-20T01:47:50;5.38;;;1.85;;
19903;SDS011;10114;50.970;4.962;2023-05-20T01:50:16;6.15;;;2.17;;
19903;SDS011;10114;50.970;4.962;2023-05-20T01:52:42;14.52;;;2.10;;
19903;SDS011;10114;50.970;4.962;2023-05-20T01:55:08;7.57;;;2.50;;
19903;SDS011;10114;50.970;4.962;2023-05-20T01:57:34;9.05;;;2.30;;
19903;SDS011;10114;50.970;4.962;2023-05-20T02:00:00;5.47;;;2.33;;
19903;SDS011;10114;50.970;4.962;2023-05-20T02:02:27;9.35;;;2.63;;
19903;SDS011;10114;50.970;4.962;2023-05-20T02:04:53;5.22;;;2.15;;
19903;SDS011;10114;50.970;4.962;2023-05-20T02:07:19;8.38;;;2.22;;
19903;SDS011;10114;50.970;4.962;2023-05-20T02:09:45;6.25;;;2.28;;
19903;SDS011;10114;50.970;4.962;2023-05-20T02:12:11;5.70;;;2.30;;
19903;SDS011;10114;50.970;4.962;2023-05-20T02:14:44;7.45;;;2.40;;
19903;SDS011;10114;50.970;4.962;2023-05-20T02:17:11;6.88;;;2.20;;
19903;SDS011;10114;50.970;4.962;2023-05-20T02:19:40;6.70;;;2.30;;
19903;SDS011;10114;50.970;4.962;2023-05-20T02:22:06;5.70;;;2.10;;
19903;SDS011;10114;50.970;4.962;2023-05-20T02:24:32;6.47;;;2.78;;
19903;SDS011;10114;50.970;4.962;2023-05-20T02:26:58;9.35;;;2.75;;
19903;SDS011;10114;50.970;4.962;2023-05-20T02:29:24;5.97;;;2.60;;
19903;SDS011;10114;50.970;4.962;2023-05-20T02:31:50;5.63;;;2.17;;
19903;SDS011;10114;50.970;4.962;2023-05-20T02:34:17;8.95;;;2.13;;
19903;SDS011;10114;50.970;4.962;2023-05-20T02:36:43;5.55;;;2.33;;
19903;SDS011;10114;50.970;4.962;2023-05-20T02:39:09;6.35;;;2.55;;
19903;SDS011;10114;50.970;4.962;2023-05-20T02:41:36;7.32;;;2.53;;
19903;SDS011;10114;50.970;4.962;2023-05-20T02:44:02;4.28;;;2.20;;
19903;SDS011;10114;50.970;4.962;2023-05-20T02:46:28;7.22;;;2.67;;
19903;SDS011;10114;50.970;4.962;2023-05-20T02:48:54;9.48;;;3.00;;
19903;SDS011;10114;50.970;4.962;2023-05-20T02:51:21;8.90;;;2.50;;
19903;SDS011;10114;50.970;4.962;2023-05-20T02:53:47;10.52;;;2.58;;
19903;SDS011;10114;50.970;4.962;2023-05-20T02:56:13;8.65;;;2.90;;
19903;SDS011;10114;50.970;4.962;2023-05-20T02:58:40;8.13;;;2.35;;
19903;SDS011;10114;50.970;4.962;2023-05-20T03:01:06;6.45;;;2.60;;
19903;SDS011;10114;50.970;4.962;2023-05-20T03:03:32;6.55;;;2.72;;
19903;SDS011;10114;50.970;4.962;2023-05-20T03:05:58;10.40;;;2.78;;
19903;SDS011;10114;50.970;4.962;2023-05-20T03:08:24;7.85;;;3.13;;
19903;SDS011;10114;50.970;4.962;2023-05-20T03:10:50;6.32;;;2.50;;
19903;SDS011;10114;50.970;4.962;2023-05-20T03:13:16;7.43;;;3.10;;
19903;SDS011;10114;50.970;4.962;2023-05-20T03:15:43;13.23;;;3.28;;
19903;SDS011;10114;50.970;4.962;2023-05-20T03:18:09;6.88;;;2.60;;
19903;SDS011;10114;50.970;4.962;2023-05-20T03:20:36;8.13;;;3.03;;
19903;SDS011;10114;50.970;4.962;2023-05-20T03:23:02;12.75;;;2.90;;
19903;SDS011;10114;50.970;4.962;2023-05-20T03:25:29;7.65;;;2.95;;
19903;SDS011;10114;50.970;4.962;2023-05-20T03:27:55;7.50;;;2.83;;
19903;SDS011;10114;50.970;4.962;2023-05-20T03:30:23;8.98;;;3.10;;
19903;SDS011;10114;50.970;4.962;2023-05-20T03:32:49;13.02;;;2.83;;
19903;SDS011;10114;50.970;4.962;2023-05-20T03:35:16;5.25;;;2.63;;
19903;SDS011;10114;50.970;4.962;2023-05-20T03:37:42;9.70;;;2.42;;
19903;SDS011;10114;50.970;4.962;2023-05-20T03:40:08;9.65;;;3.33;;
19903;SDS011;10114;50.970;4.962;2023-05-20T03:42:34;11.07;;;3.38;;
19903;SDS011;10114;50.970;4.962;2023-05-20T03:45:00;7.72;;;3.03;;
19903;SDS011;10114;50.970;4.962;2023-05-20T03:47:27;7.60;;;3.00;;
19903;SDS011;10114;50.970;4.962;2023-05-20T03:49:53;9.32;;;3.50;;
19903;SDS011;10114;50.970;4.962;2023-05-20T03:52:19;6.80;;;2.97;;
19903;SDS011;10114;50.970;4.962;2023-05-20T03:54:45;8.95;;;3.60;;
19903;SDS011;10114;50.970;4.962;2023-05-20T03:57:11;11.75;;;3.45;;
19903;SDS011;10114;50.970;4.962;2023-05-20T03:59:37;7.22;;;3.42;;
19903;SDS011;10114;50.970;4.962;2023-05-20T04:02:04;9.98;;;3.50;;
19903;SDS011;10114;50.970;4.962;2023-05-20T04:04:30;7.00;;;3.25;;
19903;SDS011;10114;50.970;4.962;2023-05-20T04:06:57;8.35;;;3.78;;
19903;SDS011;10114;50.970;4.962;2023-05-20T04:09:24;5.57;;;2.92;;
19903;SDS011;10114;50.970;4.962;2023-05-20T04:11:50;6.88;;;2.92;;
19903;SDS011;10114;50.970;4.962;2023-05-20T04:14:16;9.50;;;3.15;;
19903;SDS011;10114;50.970;4.962;2023-05-20T04:16:43;11.48;;;3.53;;
19903;SDS011;10114;50.970;4.962;2023-05-20T04:19:09;9.85;;;3.85;;
19903;SDS011;10114;50.970;4.962;2023-05-20T04:21:35;5.95;;;2.83;;
19903;SDS011;10114;50.970;4.962;2023-05-20T04:24:02;11.43;;;3.90;;
19903;SDS011;10114;50.970;4.962;2023-05-20T04:26:28;7.55;;;3.08;;
19903;SDS011;10114;50.970;4.962;2023-05-20T04:28:54;13.75;;;3.63;;
19903;SDS011;10114;50.970;4.962;2023-05-20T04:31:23;11.13;;;3.25;;
19903;SDS011;10114;50.970;4.962;2023-05-20T04:33:51;9.55;;;3.22;;
19903;SDS011;10114;50.970;4.962;2023-05-20T04:36:17;10.30;;;3.42;;
19903;SDS011;10114;50.970;4.962;2023-05-20T04:38:43;7.10;;;2.97;;
19903;SDS011;10114;50.970;4.962;2023-05-20T04:41:09;8.52;;;2.58;;
19903;SDS011;10114;50.970;4.962;2023-05-20T04:43:35;7.70;;;3.17;;
19903;SDS011;10114;50.970;4.962;2023-05-20T04:46:04;7.80;;;3.25;;
19903;SDS011;10114;50.970;4.962;2023-05-20T04:48:30;11.13;;;2.92;;
19903;SDS011;10114;50.970;4.962;2023-05-20T04:50:56;10.25;;;3.28;;
19903;SDS011;10114;50.970;4.962;2023-05-20T04:53:22;6.55;;;2.85;;
19903;SDS011;10114;50.970;4.962;2023-05-20T04:55:48;7.55;;;3.17;;
19903;SDS011;10114;50.970;4.962;2023-05-20T04:58:18;7.38;;;3.22;;
19903;SDS011;10114;50.970;4.962;2023-05-20T05:00:44;10.95;;;3.50;;
19903;SDS011;10114;50.970;4.962;2023-05-20T05:03:10;8.43;;;3.72;;
19903;SDS011;10114;50.970;4.962;2023-05-20T05:05:40;6.35;;;2.78;;
19903;SDS011;10114;50.970;4.962;2023-05-20T05:08:06;11.20;;;3.08;;
19903;SDS011;10114;50.970;4.962;2023-05-20T05:10:33;10.25;;;3.58;;
19903;SDS011;10114;50.970;4.962;2023-05-20T05:12:59;9.75;;;3.00;;
19903;SDS011;10114;50.970;4.962;2023-05-20T05:15:25;8.25;;;3.00;;
19903;SDS011;10114;50.970;4.962;2023-05-20T05:17:52;6.93;;;3.40;;
19903;SDS011;10114;50.970;4.962;2023-05-20T05:20:18;9.20;;;3.00;;
19903;SDS011;10114;50.970;4.962;2023-05-20T05:22:44;9.95;;;3.03;;
19903;SDS011;10114;50.970;4.962;2023-05-20T05:25:10;10.30;;;3.20;;
19903;SDS011;10114;50.970;4.962;2023-05-20T05:27:36;10.48;;;3.20;;
19903;SDS011;10114;50.970;4.962;2023-05-20T05:30:03;7.90;;;3.30;;
19903;SDS011;10114;50.970;4.962;2023-05-20T05:32:30;8.55;;;3.78;;
19903;SDS011;10114;50.970;4.962;2023-05-20T05:34:56;8.45;;;3.50;;
19903;SDS011;10114;50.970;4.962;2023-05-20T05:37:22;7.32;;;3.40;;
19903;SDS011;10114;50.970;4.962;2023-05-20T05:39:48;7.18;;;3.58;;
19903;SDS011;10114;50.970;4.962;2023-05-20T05:42:14;9.10;;;3.30;;
19903;SDS011;10114;50.970;4.962;2023-05-20T05:44:40;8.38;;;3.80;;
19903;SDS011;10114;50.970;4.962;2023-05-20T05:47:06;8.23;;;3.85;;
19903;SDS011;10114;50.970;4.962;2023-05-20T05:49:33;9.65;;;4.07;;
19903;SDS011;10114;50.970;4.962;2023-05-20T05:51:59;9.20;;;3.70;;
19903;SDS011;10114;50.970;4.962;2023-05-20T05:54:25;7.93;;;3.60;;
19903;SDS011;10114;50.970;4.962;2023-05-20T05:56:51;11.43;;;3.38;;
19903;SDS011;10114;50.970;4.962;2023-05-20T05:59:18;7.90;;;3.20;;
19903;SDS011;10114;50.970;4.962;2023-05-20T06:01:44;7.97;;;3.40;;
19903;SDS011;10114;50.970;4.962;2023-05-20T06:04:10;7.20;;;3.67;;
19903;SDS011;10114;50.970;4.962;2023-05-20T06:06:36;7.53;;;3.45;;
19903;SDS011;10114;50.970;4.962;2023-05-20T06:09:02;9.13;;;3.30;;
19903;SDS011;10114;50.970;4.962;2023-05-20T06:11:28;11.32;;;3.97;;
19903;SDS011;10114;50.970;4.962;2023-05-20T06:13:54;9.45;;;3.83;;
19903;SDS011;10114;50.970;4.962;2023-05-20T06:16:20;9.85;;;3.60;;
19903;SDS011;10114;50.970;4.962;2023-05-20T06:18:47;9.70;;;3.55;;
19903;SDS011;10114;50.970;4.962;2023-05-20T06:21:17;7.32;;;3.47;;
19903;SDS011;10114;50.970;4.962;2023-05-20T06:23:43;6.65;;;3.65;;
19903;SDS011;10114;50.970;4.962;2023-05-20T06:26:09;11.15;;;3.80;;
19903;SDS011;10114;50.970;4.962;2023-05-20T06:28:35;9.02;;;3.90;;
19903;SDS011;10114;50.970;4.962;2023-05-20T06:31:01;8.35;;;3.42;;
19903;SDS011;10114;50.970;4.962;2023-05-20T06:33:27;8.90;;;3.80;;
19903;SDS011;10114;50.970;4.962;2023-05-20T06:35:54;7.75;;;3.40;;
19903;SDS011;10114;50.970;4.962;2023-05-20T06:38:20;10.45;;;3.65;;
19903;SDS011;10114;50.970;4.962;2023-05-20T06:40:49;7.45;;;3.70;;
19903;SDS011;10114;50.970;4.962;2023-05-20T06:43:15;7.75;;;3.53;;
19903;SDS011;10114;50.970;4.962;2023-05-20T06:45:41;10.80;;;4.50;;
19903;SDS011;10114;50.970;4.962;2023-05-20T06:48:08;10.40;;;4.68;;
19903;SDS011;10114;50.970;4.962;2023-05-20T06:50:34;11.77;;;4.35;;
19903;SDS011;10114;50.970;4.962;2023-05-20T06:53:00;10.73;;;4.88;;
19903;SDS011;10114;50.970;4.962;2023-05-20T06:55:26;10.90;;;4.63;;
19903;SDS011;10114;50.970;4.962;2023-05-20T06:57:52;11.32;;;5.30;;
19903;SDS011;10114;50.970;4.962;2023-05-20T07:00:18;9.20;;;4.35;;
19903;SDS011;10114;50.970;4.962;2023-05-20T07:02:44;7.85;;;4.05;;
19903;SDS011;10114;50.970;4.962;2023-05-20T07:05:10;9.45;;;4.20;;
19903;SDS011;10114;50.970;4.962;2023-05-20T07:07:37;8.20;;;3.95;;
19903;SDS011;10114;50.970;4.962;2023-05-20T07:10:04;8.30;;;4.13;;
19903;SDS011;10114;50.970;4.962;2023-05-20T07:12:30;9.05;;;4.30;;
19903;SDS011;10114;50.970;4.962;2023-05-20T07:14:56;8.75;;;3.60;;
19903;SDS011;10114;50.970;4.962;2023-05-20T07:17:23;9.45;;;3.70;;
19903;SDS011;10114;50.970;4.962;2023-05-20T07:19:49;8.07;;;3.28;;
19903;SDS011;10114;50.970;4.962;2023-05-20T07:22:15;8.40;;;3.55;;
19903;SDS011;10114;50.970;4.962;2023-05-20T07:24:41;7.70;;;3.13;;
19903;SDS011;10114;50.970;4.962;2023-05-20T07:27:07;6.90;;;3.03;;
19903;SDS011;10114;50.970;4.962;2023-05-20T07:29:36;8.45;;;3.10;;
19903;SDS011;10114;50.970;4.962;2023-05-20T07:32:03;8.65;;;2.90;;
19903;SDS011;10114;50.970;4.962;2023-05-20T07:34:29;7.85;;;3.13;;
19903;SDS011;10114;50.970;4.962;2023-05-20T07:36:56;10.13;;;2.97;;
19903;SDS011;10114;50.970;4.962;2023-05-20T07:39:22;6.03;;;2.65;;
19903;SDS011;10114;50.970;4.962;2023-05-20T07:41:48;5.25;;;2.65;;
19903;SDS011;10114;50.970;4.962;2023-05-20T07:44:14;5.13;;;2.67;;
19903;SDS011;10114;50.970;4.962;2023-05-20T07:46:42;5.53;;;2.47;;
19903;SDS011;10114;50.970;4.962;2023-05-20T07:49:08;8.10;;;2.78;;
19903;SDS011;10114;50.970;4.962;2023-05-20T07:51:34;10.30;;;2.90;;
19903;SDS011;10114;50.970;4.962;2023-05-20T07:54:00;6.93;;;2.40;;
19903;SDS011;10114;50.970;4.962;2023-05-20T07:56:26;6.05;;;2.28;;
19903;SDS011;10114;50.970;4.962;2023-05-20T07:58:53;7.30;;;2.53;;
19903;SDS011;10114;50.970;4.962;2023-05-20T08:01:20;6.03;;;2.80;;
19903;SDS011;10114;50.970;4.962;2023-05-20T08:03:46;5.35;;;2.30;;
19903;SDS011;10114;50.970;4.962;2023-05-20T08:06:12;7.88;;;2.85;;
19903;SDS011;10114;50.970;4.962;2023-05-20T08:08:38;6.65;;;2.65;;
19903;SDS011;10114;50.970;4.962;2023-05-20T08:11:07;6.45;;;2.65;;
19903;SDS011;10114;50.970;4.962;2023-05-20T08:13:33;6.18;;;2.80;;
19903;SDS011;10114;50.970;4.962;2023-05-20T08:15:59;5.25;;;2.65;;
19903;SDS011;10114;50.970;4.962;2023-05-20T08:18:27;6.40;;;2.25;;
19903;SDS011;10114;50.970;4.962;2023-05-20T08:20:54;7.03;;;2.67;;
19903;SDS011;10114;50.970;4.962;2023-05-20T08:23:20;6.07;;;2.30;;
19903;SDS011;10114;50.970;4.962;2023-05-20T08:25:46;6.40;;;2.50;;
19903;SDS011;10114;50.970;4.962;2023-05-20T08:28:12;5.97;;;2.53;;
19903;SDS011;10114;50.970;4.962;2023-05-20T08:30:38;6.28;;;2.20;;
19903;SDS011;10114;50.970;4.962;2023-05-20T08:33:05;6.93;;;2.65;;
19903;SDS011;10114;50.970;4.962;2023-05-20T08:35:31;5.38;;;2.00;;
19903;SDS011;10114;50.970;4.962;2023-05-20T08:37:57;4.90;;;2.20;;
19903;SDS011;10114;50.970;4.962;2023-05-20T08:40:23;7.35;;;2.42;;
19903;SDS011;10114;50.970;4.962;2023-05-20T08:42:50;5.20;;;2.42;;
19903;SDS011;10114;50.970;4.962;2023-05-20T08:45:20;8.85;;;2.42;;
19903;SDS011;10114;50.970;4.962;2023-05-20T08:47:50;5.88;;;2.58;;
19903;SDS011;10114;50.970;4.962;2023-05-20T08:50:16;8.98;;;2.83;;
19903;SDS011;10114;50.970;4.962;2023-05-20T08:52:43;7.47;;;2.38;;
19903;SDS011;10114;50.970;4.962;2023-05-20T08:55:27;7.00;;;2.30;;
19903;SDS011;10114;50.970;4.962;2023-05-20T08:57:55;7.78;;;2.90;;
19903;SDS011;10114;50.970;4.962;2023-05-20T09:00:22;7.90;;;2.95;;
19903;SDS011;10114;50.970;4.962;2023-05-20T09:02:52;6.00;;;2.33;;
19903;SDS011;10114;50.970;4.962;2023-05-20T09:05:18;5.07;;;2.30;;
19903;SDS011;10114;50.970;4.962;2023-05-20T09:07:45;7.15;;;2.28;;
19903;SDS011;10114;50.970;4.962;2023-05-20T09:10:11;6.13;;;1.90;;
19903;SDS011;10114;50.970;4.962;2023-05-20T09:12:37;3.80;;;1.80;;
19903;SDS011;10114;50.970;4.962;2023-05-20T09:15:04;4.07;;;1.98;;
19903;SDS011;10114;50.970;4.962;2023-05-20T09:17:30;8.20;;;2.65;;
19903;SDS011;10114;50.970;4.962;2023-05-20T09:19:56;5.57;;;2.10;;
19903;SDS011;10114;50.970;4.962;2023-05-20T09:22:23;5.88;;;2.50;;
19903;SDS011;10114;50.970;4.962;2023-05-20T09:24:49;6.30;;;2.35;;
19903;SDS011;10114;50.970;4.962;2023-05-20T09:27:16;7.32;;;2.50;;
19903;SDS011;10114;50.970;4.962;2023-05-20T09:29:42;10.38;;;2.17;;
19903;SDS011;10114;50.970;4.962;2023-05-20T09:32:09;5.05;;;2.20;;
19903;SDS011;10114;50.970;4.962;2023-05-20T09:34:38;5.20;;;1.80;;
19903;SDS011;10114;50.970;4.962;2023-05-20T09:37:06;6.38;;;2.15;;
19903;SDS011;10114;50.970;4.962;2023-05-20T09:39:35;10.38;;;1.90;;
19903;SDS011;10114;50.970;4.962;2023-05-20T09:42:09;6.53;;;2.25;;
19903;SDS011;10114;50.970;4.962;2023-05-20T09:44:37;6.30;;;2.40;;
19903;SDS011;10114;50.970;4.962;2023-05-20T09:47:03;8.20;;;2.33;;
19903;SDS011;10114;50.970;4.962;2023-05-20T09:49:30;5.65;;;2.28;;
19903;SDS011;10114;50.970;4.962;2023-05-20T09:51:56;5.75;;;2.03;;
19903;SDS011;10114;50.970;4.962;2023-05-20T09:54:23;6.13;;;2.20;;
19903;SDS011;10114;50.970;4.962;2023-05-20T09:56:49;5.97;;;2.40;;
19903;SDS011;10114;50.970;4.962;2023-05-20T09:59:15;7.25;;;2.15;;
19903;SDS011;10114;50.970;4.962;2023-05-20T10:01:42;4.97;;;2.13;;
19903;SDS011;10114;50.970;4.962;2023-05-20T10:04:08;6.00;;;2.65;;
19903;SDS011;10114;50.970;4.962;2023-05-20T10:12:21;6.88;;;2.30;;
19903;SDS011;10114;50.970;4.962;2023-05-20T10:17:30;4.88;;;2.17;;
19903;SDS011;10114;50.970;4.962;2023-05-20T10:20:01;4.75;;;2.30;;
19903;SDS011;10114;50.970;4.962;2023-05-20T10:22:28;5.88;;;2.33;;
19903;SDS011;10114;50.970;4.962;2023-05-20T10:24:58;6.00;;;1.98;;
19903;SDS011;10114;50.970;4.962;2023-05-20T10:27:24;8.50;;;2.80;;
19903;SDS011;10114;50.970;4.962;2023-05-20T10:29:51;6.15;;;2.45;;
19903;SDS011;10114;50.970;4.962;2023-05-20T10:34:50;6.28;;;2.47;;
19903;SDS011;10114;50.970;4.962;2023-05-20T10:37:23;6.15;;;2.15;;
19903;SDS011;10114;50.970;4.962;2023-05-20T10:39:50;5.63;;;2.50;;
19903;SDS011;10114;50.970;4.962;2023-05-20T10:42:16;8.38;;;2.17;;
19903;SDS011;10114;50.970;4.962;2023-05-20T10:44:52;12.02;;;3.13;;
19903;SDS011;10114;50.970;4.962;2023-05-20T10:47:18;4.55;;;2.42;;
19903;SDS011;10114;50.970;4.962;2023-05-20T10:49:44;6.22;;;2.60;;
19903;SDS011;10114;50.970;4.962;2023-05-20T10:52:17;6.80;;;2.38;;
19903;SDS011;10114;50.970;4.962;2023-05-20T10:54:47;7.47;;;2.58;;
19903;SDS011;10114;50.970;4.962;2023-05-20T10:57:19;8.93;;;2.78;;
19903;SDS011;10114;50.970;4.962;2023-05-20T10:59:45;6.95;;;2.60;;
19903;SDS011;10114;50.970;4.962;2023-05-20T11:02:14;6.63;;;2.75;;
19903;SDS011;10114;50.970;4.962;2023-05-20T11:04:43;9.00;;;3.05;;
19903;SDS011;10114;50.970;4.962;2023-05-20T11:07:09;6.78;;;2.50;;
19903;SDS011;10114;50.970;4.962;2023-05-20T11:09:35;8.25;;;2.80;;
19903;SDS011;10114;50.970;4.962;2023-05-20T11:12:01;8.52;;;3.17;;
19903;SDS011;10114;50.970;4.962;2023-05-20T11:14:28;10.40;;;2.53;;
19903;SDS011;10114;50.970;4.962;2023-05-20T11:16:58;6.40;;;2.35;;
19903;SDS011;10114;50.970;4.962;2023-05-20T11:19:24;5.97;;;3.00;;
19903;SDS011;10114;50.970;4.962;2023-05-20T11:21:51;7.15;;;3.08;;
19903;SDS011;10114;50.970;4.962;2023-05-20T11:24:24;7.55;;;2.65;;
19903;SDS011;10114;50.970;4.962;2023-05-20T11:26:51;11.25;;;2.95;;
19903;SDS011;10114;50.970;4.962;2023-05-20T11:29:17;6.28;;;2.58;;
19903;SDS011;10114;50.970;4.962;2023-05-20T11:31:44;5.45;;;2.40;;
19903;SDS011;10114;50.970;4.962;2023-05-20T11:34:10;5.65;;;2.67;;
19903;SDS011;10114;50.970;4.962;2023-05-20T11:36:42;5.07;;;2.22;;
19903;SDS011;10114;50.970;4.962;2023-05-20T11:39:09;6.40;;;2.78;;
19903;SDS011;10114;50.970;4.962;2023-05-20T11:41:35;7.65;;;2.88;;
19903;SDS011;10114;50.970;4.962;2023-05-20T11:44:03;7.10;;;2.75;;
19903;SDS011;10114;50.970;4.962;2023-05-20T11:46:29;8.40;;;2.80;;
19903;SDS011;10114;50.970;4.962;2023-05-20T11:48:55;6.25;;;2.70;;
19903;SDS011;10114;50.970;4.962;2023-05-20T11:51:28;7.97;;;2.55;;
19903;SDS011;10114;50.970;4.962;2023-05-20T11:53:58;6.00;;;2.83;;
19903;SDS011;10114;50.970;4.962;2023-05-20T11:56:27;4.30;;;2.42;;
19903;SDS011;10114;50.970;4.962;2023-05-20T11:58:53;5.72;;;2.45;;
19903;SDS011;10114;50.970;4.962;2023-05-20T12:01:21;4.95;;;2.58;;
19903;SDS011;10114;50.970;4.962;2023-05-20T12:03:47;6.85;;;2.30;;
19903;SDS011;10114;50.970;4.962;2023-05-20T12:06:13;7.72;;;2.65;;
19903;SDS011;10114;50.970;4.962;2023-05-20T12:08:41;5.97;;;2.60;;
19903;SDS011;10114;50.970;4.962;2023-05-20T12:11:07;6.65;;;2.80;;
19903;SDS011;10114;50.970;4.962;2023-05-20T12:13:33;5.43;;;2.20;;
19903;SDS011;10114;50.970;4.962;2023-05-20T12:15:59;5.60;;;2.28;;
19903;SDS011;10114;50.970;4.962;2023-05-20T12:18:25;5.57;;;2.38;;
19903;SDS011;10114;50.970;4.962;2023-05-20T12:20:51;6.82;;;2.47;;
19903;SDS011;10114;50.970;4.962;2023-05-20T12:23:17;6.32;;;2.28;;
19903;SDS011;10114;50.970;4.962;2023-05-20T12:25:44;6.20;;;2.10;;
19903;SDS011;10114;50.970;4.962;2023-05-20T12:28:11;8.00;;;2.03;;
19903;SDS011;10114;50.970;4.962;2023-05-20T12:30:37;6.10;;;2.08;;
19903;SDS011;10114;50.970;4.962;2023-05-20T12:33:03;6.47;;;2.30;;
19903;SDS011;10114;50.970;4.962;2023-05-20T12:35:36;9.40;;;2.53;;
19903;SDS011;10114;50.970;4.962;2023-05-20T12:38:02;5.00;;;2.60;;
19903;SDS011;10114;50.970;4.962;2023-05-20T12:40:28;4.38;;;2.10;;
19903;SDS011;10114;50.970;4.962;2023-05-20T12:42:55;10.25;;;2.47;;
19903;SDS011;10114;50.970;4.962;2023-05-20T12:45:21;5.53;;;2.60;;
19903;SDS011;10114;50.970;4.962;2023-05-20T12:47:47;6.55;;;2.22;;
19903;SDS011;10114;50.970;4.962;2023-05-20T12:50:13;6.72;;;2.70;;
19903;SDS011;10114;50.970;4.962;2023-05-20T12:52:39;6.70;;;2.40;;
19903;SDS011;10114;50.970;4.962;2023-05-20T12:55:05;10.32;;;2.63;;
19903;SDS011;10114;50.970;4.962;2023-05-20T12:57:37;6.28;;;2.35;;
19903;SDS011;10114;50.970;4.962;2023-05-20T13:00:03;6.18;;;2.25;;
19903;SDS011;10114;50.970;4.962;2023-05-20T13:02:30;7.13;;;2.33;;
19903;SDS011;10114;50.970;4.962;2023-05-20T13:04:56;8.65;;;2.83;;
19903;SDS011;10114;50.970;4.962;2023-05-20T13:07:22;4.80;;;2.30;;
19903;SDS011;10114;50.970;4.962;2023-05-20T13:09:50;6.80;;;2.20;;
19903;SDS011;10114;50.970;4.962;2023-05-20T13:12:16;7.53;;;1.98;;
19903;SDS011;10114;50.970;4.962;2023-05-20T13:14:42;6.68;;;2.20;;
19903;SDS011;10114;50.970;4.962;2023-05-20T13:17:08;4.68;;;2.50;;
19903;SDS011;10114;50.970;4.962;2023-05-20T13:19:35;6.57;;;2.00;;
19903;SDS011;10114;50.970;4.962;2023-05-20T13:22:02;5.30;;;2.22;;
19903;SDS011;10114;50.970;4.962;2023-05-20T13:24:28;7.18;;;2.28;;
19903;SDS011;10114;50.970;4.962;2023-05-20T13:26:54;4.90;;;2.20;;
19903;SDS011;10114;50.970;4.962;2023-05-20T13:29:20;6.40;;;2.30;;
19903;SDS011;10114;50.970;4.962;2023-05-20T13:31:46;8.77;;;2.90;;
19903;SDS011;10114;50.970;4.962;2023-05-20T13:34:13;4.53;;;1.98;;
19903;SDS011;10114;50.970;4.962;2023-05-20T13:36:39;7.75;;;2.45;;
19903;SDS011;10114;50.970;4.962;2023-05-20T13:39:05;6.78;;;2.22;;
19903;SDS011;10114;50.970;4.962;2023-05-20T13:41:31;5.65;;;2.10;;
19903;SDS011;10114;50.970;4.962;2023-05-20T13:43:57;6.93;;;2.70;;
19903;SDS011;10114;50.970;4.962;2023-05-20T13:46:23;5.38;;;2.65;;
19903;SDS011;10114;50.970;4.962;2023-05-20T13:48:49;5.68;;;2.67;;
19903;SDS011;10114;50.970;4.962;2023-05-20T13:51:15;4.85;;;2.30;;
19903;SDS011;10114;50.970;4.962;2023-05-20T13:53:41;6.78;;;2.35;;
19903;SDS011;10114;50.970;4.962;2023-05-20T13:56:07;7.20;;;2.65;;
19903;SDS011;10114;50.970;4.962;2023-05-20T13:58:34;5.57;;;2.60;;
19903;SDS011;10114;50.970;4.962;2023-05-20T14:01:01;5.07;;;2.78;;
19903;SDS011;10114;50.970;4.962;2023-05-20T14:03:28;8.30;;;2.70;;
19903;SDS011;10114;50.970;4.962;2023-05-20T14:05:54;5.10;;;2.30;;
19903;SDS011;10114;50.970;4.962;2023-05-20T14:08:20;5.60;;;2.88;;
19903;SDS011;10114;50.970;4.962;2023-05-20T14:10:47;6.90;;;3.00;;
19903;SDS011;10114;50.970;4.962;2023-05-20T14:13:13;6.03;;;3.05;;
19903;SDS011;10114;50.970;4.962;2023-05-20T14:15:39;6.47;;;3.08;;
19903;SDS011;10114;50.970;4.962;2023-05-20T14:18:05;6.22;;;2.80;;
19903;SDS011;10114;50.970;4.962;2023-05-20T14:20:31;5.82;;;2.83;;
19903;SDS011;10114;50.970;4.962;2023-05-20T14:22:57;6.43;;;3.17;;
19903;SDS011;10114;50.970;4.962;2023-05-20T14:25:25;11.30;;;2.80;;
19903;SDS011;10114;50.970;4.962;2023-05-20T14:27:51;9.50;;;3.40;;
19903;SDS011;10114;50.970;4.962;2023-05-20T14:30:18;11.60;;;3.45;;
19903;SDS011;10114;50.970;4.962;2023-05-20T14:32:44;5.43;;;2.85;;
19903;SDS011;10114;50.970;4.962;2023-05-20T14:35:10;8.25;;;2.60;;
19903;SDS011;10114;50.970;4.962;2023-05-20T14:37:36;7.28;;;3.13;;
19903;SDS011;10114;50.970;4.962;2023-05-20T14:40:03;8.48;;;3.40;;
19903;SDS011;10114;50.970;4.962;2023-05-20T14:42:31;7.55;;;3.75;;
19903;SDS011;10114;50.970;4.962;2023-05-20T14:44:57;10.02;;;4.38;;
19903;SDS011;10114;50.970;4.962;2023-05-20T14:47:23;7.35;;;3.67;;
19903;SDS011;10114;50.970;4.962;2023-05-20T14:49:50;8.82;;;3.92;;
19903;SDS011;10114;50.970;4.962;2023-05-20T14:52:16;9.18;;;3.55;;
19903;SDS011;10114;50.970;4.962;2023-05-20T14:54:42;6.18;;;3.22;;